Shelburne, Massachusetts
Current Conditions -  °F | °C
As of 1:52 AM on Sunday 26 Oct 2014 (Local Time) from KAQW Reporting Station
Haze Haze  
Wind Chill: 47°   Ceiling: 3100
Heat Index: 47°   Visibility: 5mi
Dew Point: 46°   Wind: 0mph
Humidity: 97%   Direction: NA
Pressure: 29.51"   Gusts: NA
Location:  42.6026°N, 72.7442°W
Report Text: KAQW 260552Z AUTO 00000KT 5SM BR BKN031 BKN042 OVC055 08/08 A2951 RMK AO2 SLP992 60004 T00830078 10122 20072 58017
Loading
Personal Weather Stations






























Interactive Weather Map
Tropical Storm Tracking
New forecast layout! Learn more

10-Day Weather Forecast

Advertisements
Track Severe Weather on mobile